Time;durP1;ratioP1;P1;durP2;ratioP2;P2;SDS_P1;SDS_P2;PMS_P1;PMS_P2;Temp;Humidity;BMP_temperature;BMP_pressure;BME280_temperature;BME280_humidity;BME280_pressure;Samples;Min_cycle;Max_cycle;Signal;HPM_P1;HPM_P2
2021/12/13 00:01:50;;;;;;;21.05;13.77;;;7.20;99.90;;;;;;5070416;28;20033;-51
2021/12/13 00:04:44;;;;;;;22.58;15.65;;;7.20;99.90;;;;;;5070826;28;20027;-49
2021/12/13 00:07:21;;;;;;;23.55;14.80;;;7.20;99.90;;;;;;5070128;28;20100;-48
2021/12/13 00:09:49;;;;;;;23.92;14.75;;;7.20;99.90;;;;;;5068924;28;20028;-51
2021/12/13 00:12:34;;;;;;;24.17;14.85;;;7.20;99.90;;;;;;5070340;28;20096;-50
2021/12/13 00:15:03;;;;;;;23.02;15.18;;;7.20;99.90;;;;;;5070259;28;20025;-51
2021/12/13 00:17:40;;;;;;;20.05;14.27;;;7.30;99.90;;;;;;5069457;28;20064;-51
2021/12/13 00:20:27;;;;;;;23.33;15.35;;;7.30;99.90;;;;;;5070016;28;20170;-48
2021/12/13 00:23:03;;;;;;;25.50;15.25;;;7.30;99.90;;;;;;5070057;28;20513;-50
2021/12/13 00:25:29;;;;;;;23.45;15.13;;;7.30;99.90;;;;;;5070040;28;20616;-50
2021/12/13 00:28:05;;;;;;;26.33;16.85;;;7.30;99.90;;;;;;5076645;28;20099;-50
2021/12/13 00:30:51;;;;;;;21.40;14.02;;;7.30;99.90;;;;;;5084227;28;20036;-50
2021/12/13 00:33:55;;;;;;;20.58;14.32;;;7.30;99.90;;;;;;5090108;28;20058;-50
2021/12/13 00:36:35;;;;;;;20.70;13.48;;;7.40;99.90;;;;;;5090161;28;20024;-48
2021/12/13 00:39:19;;;;;;;23.88;16.27;;;7.40;99.90;;;;;;5089217;28;20085;-50
2021/12/13 00:41:48;;;;;;;26.25;15.52;;;7.40;99.90;;;;;;5089575;28;20106;-50
2021/12/13 00:44:22;;;;;;;20.00;13.77;;;7.40;99.90;;;;;;5088421;28;20530;-49
2021/12/13 00:46:50;;;;;;;23.83;14.63;;;7.40;99.90;;;;;;5089859;28;20030;-51
2021/12/13 00:49:18;;;;;;;21.15;13.88;;;7.40;99.90;;;;;;5089159;28;20022;-49
2021/12/13 00:51:48;;;;;;;21.08;14.25;;;7.40;99.90;;;;;;5089666;28;20085;-49
2021/12/13 00:54:29;;;;;;;25.38;14.85;;;7.40;99.90;;;;;;5089786;28;20111;-50
2021/12/13 00:57:01;;;;;;;23.50;14.73;;;7.50;99.90;;;;;;5099156;28;20081;-51
2021/12/13 00:59:37;;;;;;;24.55;15.43;;;7.50;99.90;;;;;;5080618;28;20019;-49
2021/12/13 01:02:08;;;;;;;25.77;15.90;;;7.50;99.90;;;;;;5088870;28;20055;-50
2021/12/13 01:04:54;;;;;;;29.50;17.25;;;7.50;99.90;;;;;;5088149;28;20618;-51
2021/12/13 01:07:38;;;;;;;29.67;16.55;;;7.50;99.90;;;;;;5089080;28;20032;-51
2021/12/13 01:10:49;;;;;;;24.45;15.80;;;7.50;99.90;;;;;;5089582;28;20024;-51
2021/12/13 01:13:28;;;;;;;26.58;15.88;;;7.60;99.90;;;;;;5088921;28;20309;-51
2021/12/13 01:16:12;;;;;;;27.13;16.35;;;7.60;99.90;;;;;;5089322;28;20510;-51
2021/12/13 01:19:00;;;;;;;27.30;17.13;;;7.60;99.90;;;;;;5087436;28;20401;-51
2021/12/13 01:21:38;;;;;;;26.23;16.95;;;7.60;99.90;;;;;;5089431;28;20028;-51
2021/12/13 01:24:20;;;;;;;30.48;17.52;;;7.60;99.90;;;;;;5089153;28;20073;-49
2021/12/13 01:26:49;;;;;;;26.45;16.92;;;7.60;99.90;;;;;;5083638;28;20012;-50
2021/12/13 01:29:24;;;;;;;28.95;17.25;;;7.60;99.90;;;;;;5080073;28;20020;-50
2021/12/13 01:32:02;;;;;;;26.83;16.38;;;7.60;99.90;;;;;;5089036;28;20028;-50
2021/12/13 01:34:31;;;;;;;26.80;16.65;;;7.60;99.90;;;;;;5089056;28;20020;-51
2021/12/13 01:37:07;;;;;;;25.20;16.15;;;7.70;99.90;;;;;;5088857;28;20087;-54
2021/12/13 01:39:34;;;;;;;27.13;16.08;;;7.70;99.90;;;;;;5088314;28;20063;-51
2021/12/13 01:42:09;;;;;;;24.83;15.85;;;7.80;99.90;;;;;;5088711;28;20035;-52
2021/12/13 01:44:40;;;;;;;27.88;16.83;;;7.70;99.90;;;;;;5088764;28;20024;-51
2021/12/13 01:47:10;;;;;;;32.80;16.45;;;7.80;99.90;;;;;;5088895;28;20024;-52
2021/12/13 01:49:39;;;;;;;25.80;15.98;;;7.80;99.90;;;;;;5088626;28;20039;-51
2021/12/13 01:52:33;;;;;;;26.63;16.58;;;7.80;99.90;;;;;;5088731;28;20016;-50
2021/12/13 01:55:07;;;;;;;22.75;15.07;;;7.90;99.90;;;;;;5088758;28;20045;-50
2021/12/13 01:57:46;;;;;;;24.45;15.93;;;7.90;99.90;;;;;;5083108;28;20024;-50
2021/12/13 02:00:18;;;;;;;26.30;16.65;;;7.90;99.90;;;;;;5068986;28;20212;-50
2021/12/13 02:02:47;;;;;;;22.77;15.23;;;7.90;99.90;;;;;;5084241;28;20033;-50
2021/12/13 02:05:19;;;;;;;23.73;15.55;;;7.90;99.90;;;;;;5068735;28;20017;-51
2021/12/13 02:07:54;;;;;;;27.33;17.13;;;7.90;99.90;;;;;;5067918;28;20048;-51
2021/12/13 02:10:23;;;;;;;25.63;15.40;;;7.90;99.90;;;;;;5068727;28;20027;-51
2021/12/13 02:12:55;;;;;;;27.35;16.65;;;7.90;99.90;;;;;;5069923;28;20178;-51
2021/12/13 02:18:12;;;;;;;27.30;16.15;;;7.90;99.90;;;;;;5072148;28;20555;-50
2021/12/13 02:20:42;;;;;;;28.10;17.17;;;7.90;99.90;;;;;;5072835;28;20028;-49
2021/12/13 02:23:08;;;;;;;27.52;16.38;;;7.90;99.90;;;;;;5072479;28;20039;-51
2021/12/13 02:25:37;;;;;;;27.00;16.25;;;7.90;99.90;;;;;;5072236;28;20029;-50
2021/12/13 02:28:16;;;;;;;25.88;16.23;;;7.90;99.90;;;;;;5079054;28;20035;-48
2021/12/13 02:30:53;;;;;;;29.20;16.23;;;7.90;99.90;;;;;;5087670;28;20445;-50
2021/12/13 02:33:36;;;;;;;26.95;16.08;;;7.90;99.90;;;;;;5092447;28;20304;-49
2021/12/13 02:36:17;;;;;;;26.13;15.43;;;7.90;99.90;;;;;;5092300;28;20032;-48
2021/12/13 02:38:47;;;;;;;22.17;13.90;;;7.90;99.90;;;;;;5091561;28;20054;-51
2021/12/13 02:41:15;;;;;;;24.23;14.55;;;7.90;99.90;;;;;;5092358;28;20221;-50
2021/12/13 02:43:47;;;;;;;25.33;15.50;;;7.90;99.90;;;;;;5091972;28;20028;-51
2021/12/13 02:46:14;;;;;;;22.60;14.90;;;7.90;99.90;;;;;;5092529;28;20516;-51
2021/12/13 02:48:54;;;;;;;22.25;13.98;;;8.00;99.90;;;;;;5091614;28;20103;-50
2021/12/13 02:51:30;;;;;;;24.15;13.50;;;8.00;99.90;;;;;;5092210;28;20077;-51
2021/12/13 02:53:58;;;;;;;22.73;14.23;;;8.00;99.90;;;;;;5092148;28;20044;-51
2021/12/13 02:56:29;;;;;;;22.52;13.63;;;8.00;99.90;;;;;;5091096;28;20417;-51
2021/12/13 02:58:56;;;;;;;21.90;13.85;;;7.90;99.90;;;;;;5079876;28;20028;-50
2021/12/13 03:01:27;;;;;;;22.92;13.85;;;8.00;99.90;;;;;;5091938;28;20035;-49
2021/12/13 03:03:57;;;;;;;21.83;13.73;;;8.00;99.90;;;;;;5091906;28;20433;-48
2021/12/13 03:06:28;;;;;;;22.05;13.88;;;8.00;99.90;;;;;;5091892;28;20103;-48
2021/12/13 03:09:16;;;;;;;21.00;12.30;;;8.00;99.90;;;;;;5091261;28;20020;-49
2021/12/13 03:11:43;;;;;;;21.70;12.68;;;8.00;99.90;;;;;;5090470;28;20028;-51
2021/12/13 03:14:28;;;;;;;18.15;11.70;;;8.00;99.90;;;;;;5091616;28;20297;-51
2021/12/13 03:17:20;;;;;;;20.73;12.48;;;8.00;99.90;;;;;;5091659;28;20050;-51
2021/12/13 03:20:20;;;;;;;20.70;11.60;;;8.00;99.90;;;;;;5092031;28;20104;-51
2021/12/13 03:23:21;;;;;;;20.83;12.13;;;8.00;99.90;;;;;;5091614;28;20048;-51
2021/12/13 03:25:56;;;;;;;20.77;12.88;;;8.00;99.90;;;;;;5104111;28;20028;-51
2021/12/13 03:28:45;;;;;;;21.30;13.20;;;8.00;99.90;;;;;;5081001;28;20027;-51
2021/12/13 03:31:15;;;;;;;24.63;13.85;;;8.00;99.90;;;;;;5090669;28;20039;-51
2021/12/13 03:33:53;;;;;;;22.75;12.93;;;8.00;99.90;;;;;;5090019;28;20449;-51
2021/12/13 03:36:24;;;;;;;22.75;13.15;;;8.00;99.90;;;;;;5091331;28;20044;-51
2021/12/13 03:38:54;;;;;;;20.30;12.30;;;8.00;99.90;;;;;;5090549;28;20414;-50
2021/12/13 03:41:23;;;;;;;19.30;12.80;;;8.00;99.90;;;;;;5091199;28;20524;-49
2021/12/13 03:43:53;;;;;;;20.00;12.57;;;8.00;99.90;;;;;;5091086;28;20036;-50
2021/12/13 03:46:21;;;;;;;19.58;11.85;;;8.00;99.90;;;;;;5089712;28;20492;-51
2021/12/13 03:48:49;;;;;;;20.30;11.88;;;8.00;99.90;;;;;;5090424;28;20028;-52
2021/12/13 03:51:19;;;;;;;18.27;11.35;;;8.00;99.90;;;;;;5089794;28;20020;-54
2021/12/13 03:53:48;;;;;;;18.45;11.68;;;8.00;99.90;;;;;;5090918;28;20019;-52
2021/12/13 03:56:20;;;;;;;18.08;11.23;;;8.10;99.90;;;;;;5075654;28;20123;-52
2021/12/13 03:58:50;;;;;;;19.05;11.60;;;8.10;99.90;;;;;;5069391;28;20055;-52
2021/12/13 04:01:27;;;;;;;19.55;11.52;;;8.10;99.90;;;;;;5069395;28;20024;-52
2021/12/13 04:03:56;;;;;;;17.48;9.88;;;8.10;99.90;;;;;;5069290;28;20074;-54
2021/12/13 04:06:22;;;;;;;19.92;11.60;;;8.10;99.90;;;;;;5067108;28;20022;-54
2021/12/13 04:08:50;;;;;;;17.20;10.57;;;8.10;99.90;;;;;;5068723;28;20023;-54
2021/12/13 04:11:16;;;;;;;19.17;10.95;;;8.10;99.90;;;;;;5069225;28;20028;-54
2021/12/13 04:13:47;;;;;;;19.83;11.20;;;8.10;99.90;;;;;;5069296;28;20028;-54
2021/12/13 04:16:34;;;;;;;17.55;10.38;;;8.10;99.90;;;;;;5069274;28;20533;-54
2021/12/13 04:19:09;;;;;;;19.77;11.07;;;8.10;99.90;;;;;;5066159;28;20024;-54
2021/12/13 04:21:56;;;;;;;21.77;11.98;;;8.10;99.90;;;;;;5069393;28;20037;-54
2021/12/13 04:24:41;;;;;;;21.60;11.55;;;8.10;99.90;;;;;;5066784;28;20021;-54
2021/12/13 04:27:19;;;;;;;26.63;14.27;;;8.10;99.90;;;;;;5066065;28;20435;-54
2021/12/13 04:29:47;;;;;;;25.75;15.05;;;8.10;99.90;;;;;;5066717;28;20029;-53
2021/12/13 04:32:42;;;;;;;33.85;16.23;;;8.10;99.90;;;;;;5066765;28;20039;-51
2021/12/13 04:35:10;;;;;;;34.83;16.80;;;8.20;99.90;;;;;;5064921;28;20552;-51
2021/12/13 04:37:44;;;;;;;32.28;16.67;;;8.20;99.90;;;;;;5066937;28;20407;-49
2021/12/13 04:40:15;;;;;;;29.10;15.60;;;8.20;99.90;;;;;;5068297;28;20020;-51
2021/12/13 04:42:42;;;;;;;32.38;17.55;;;8.20;99.90;;;;;;5065545;28;20024;-51
2021/12/13 04:45:15;;;;;;;29.77;15.50;;;8.30;99.90;;;;;;5068410;28;20032;-52
2021/12/13 04:47:48;;;;;;;31.48;16.90;;;8.30;99.90;;;;;;5068103;28;20013;-52
2021/12/13 04:50:18;;;;;;;40.55;19.23;;;8.30;99.90;;;;;;5068379;28;20056;-51
2021/12/13 04:52:45;;;;;;;45.33;21.27;;;8.30;99.90;;;;;;5068306;28;20028;-52
2021/12/13 04:55:21;;;;;;;50.65;22.55;;;8.40;99.90;;;;;;5068058;28;20285;-52
2021/12/13 04:57:50;;;;;;;45.45;21.30;;;8.30;99.90;;;;;;5066105;28;20147;-53
2021/12/13 05:00:18;;;;;;;58.00;24.00;;;8.40;99.90;;;;;;5071701;28;20028;-54
2021/12/13 05:02:47;;;;;;;53.30;22.73;;;8.40;99.90;;;;;;5066808;28;20059;-52
2021/12/13 05:05:14;;;;;;;50.25;23.40;;;8.40;99.90;;;;;;5068171;28;20031;-53
2021/12/13 05:07:43;;;;;;;65.70;24.77;;;8.40;99.90;;;;;;5067245;28;20107;-52
2021/12/13 05:10:12;;;;;;;69.13;26.83;;;8.50;99.90;;;;;;5067981;28;20059;-51
2021/12/13 05:12:38;;;;;;;57.88;25.67;;;8.50;99.90;;;;;;5067531;28;20024;-51
2021/12/13 05:15:12;;;;;;;73.93;27.10;;;8.50;99.90;;;;;;5066523;28;20051;-52
2021/12/13 05:17:43;;;;;;;78.57;28.52;;;8.50;99.90;;;;;;5067878;28;20032;-52
2021/12/13 05:20:23;;;;;;;78.13;30.05;;;8.50;99.90;;;;;;5069035;28;20704;-53
2021/12/13 05:22:58;;;;;;;78.22;30.75;;;8.50;99.90;;;;;;5068989;28;20634;-53
2021/12/13 05:25:31;;;;;;;86.43;31.77;;;8.60;99.90;;;;;;5067521;28;20448;-55
2021/12/13 05:28:20;;;;;;;81.38;29.45;;;8.60;99.90;;;;;;5075735;28;20031;-55
2021/12/13 05:30:51;;;;;;;79.57;31.75;;;8.60;99.90;;;;;;5085076;28;20184;-51
2021/12/13 05:33:18;;;;;;;;;;;8.60;99.90;;;;;;5089374;28;20020;-52
2021/12/13 05:35:49;;;;;;;78.88;29.08;;;8.60;99.90;;;;;;5088943;28;19908;-52
2021/12/13 05:38:27;;;;;;;87.80;32.30;;;8.60;99.90;;;;;;5088239;28;20050;-54
2021/12/13 05:40:53;;;;;;;80.15;30.88;;;8.60;99.90;;;;;;5087531;28;20474;-55
2021/12/13 05:43:29;;;;;;;106.85;34.88;;;8.60;99.90;;;;;;5088648;28;20492;-51
2021/12/13 05:46:04;;;;;;;108.88;35.83;;;8.70;99.90;;;;;;5089417;28;20032;-53
2021/12/13 05:48:35;;;;;;;101.72;35.63;;;8.70;99.90;;;;;;5088021;28;20027;-51
2021/12/13 05:51:05;;;;;;;124.30;39.03;;;8.70;99.90;;;;;;5080650;28;20032;-52
2021/12/13 05:53:36;;;;;;;121.87;39.37;;;8.70;99.90;;;;;;5088691;28;20036;-52
2021/12/13 05:56:04;;;;;;;106.28;35.42;;;8.70;99.90;;;;;;5088951;28;20345;-51
2021/12/13 05:58:45;;;;;;;110.28;35.80;;;8.80;99.90;;;;;;5078631;28;20188;-51
2021/12/13 06:01:31;;;;;;;118.43;37.42;;;8.80;99.90;;;;;;5087830;28;20486;-51
2021/12/13 06:04:06;;;;;;;98.72;33.35;;;8.80;99.90;;;;;;5088690;28;20028;-50
2021/12/13 06:06:33;;;;;;;132.00;37.88;;;8.80;99.90;;;;;;5087279;28;20024;-51
2021/12/13 06:08:59;;;;;;;103.18;36.28;;;8.80;99.90;;;;;;5086871;28;20131;-50
2021/12/13 06:11:32;;;;;;;111.40;35.88;;;8.80;99.90;;;;;;5088667;28;20089;-51
2021/12/13 06:14:15;;;;;;;125.93;36.80;;;8.80;99.90;;;;;;5088607;28;20028;-51
2021/12/13 06:16:54;;;;;;;135.00;41.40;;;8.90;99.90;;;;;;5072064;28;20035;-51
2021/12/13 06:19:31;;;;;;;107.65;35.95;;;8.90;99.90;;;;;;5076226;28;20060;-51
2021/12/13 06:22:11;;;;;;;102.50;35.15;;;8.90;99.90;;;;;;5092664;28;20047;-52
2021/12/13 06:24:51;;;;;;;101.43;34.05;;;8.90;99.90;;;;;;5068335;28;20021;-51
2021/12/13 06:27:23;;;;;;;121.82;37.45;;;8.90;99.90;;;;;;5070471;28;20034;-51
2021/12/13 06:30:18;;;;;;;126.32;37.05;;;8.90;99.90;;;;;;5079738;28;20043;-51
2021/12/13 06:32:57;;;;;;;131.00;40.35;;;8.90;99.90;;;;;;5086019;28;20040;-51
2021/12/13 06:35:32;;;;;;;107.35;36.13;;;8.90;99.90;;;;;;5088349;28;20056;-48
2021/12/13 06:38:00;;;;;;;132.88;41.28;;;8.90;99.90;;;;;;5087660;28;20095;-50
2021/12/13 06:40:29;;;;;;;136.18;41.83;;;9.00;99.90;;;;;;5088052;28;20539;-50
2021/12/13 06:43:00;;;;;;;121.90;41.47;;;9.00;99.90;;;;;;5088089;28;20023;-51
2021/12/13 06:45:33;;;;;;;110.72;37.22;;;8.90;99.90;;;;;;5088350;28;20389;-52
2021/12/13 06:48:01;;;;;;;100.03;34.17;;;8.90;99.90;;;;;;5087782;28;20028;-52
2021/12/13 06:50:33;;;;;;;115.18;39.50;;;8.90;99.90;;;;;;5088019;28;20024;-52
2021/12/13 06:53:18;;;;;;;131.50;42.33;;;8.90;99.90;;;;;;5077033;28;20092;-54
2021/12/13 06:55:45;;;;;;;123.63;37.63;;;8.90;99.90;;;;;;5046634;28;20056;-52
2021/12/13 06:58:27;;;;;;;136.30;39.75;;;9.00;99.90;;;;;;5066056;28;20020;-54
2021/12/13 07:00:57;;;;;;;128.95;39.63;;;8.90;99.90;;;;;;5084725;28;20095;-52
2021/12/13 07:03:27;;;;;;;125.40;39.37;;;8.90;99.90;;;;;;5089111;28;20119;-52
2021/12/13 07:05:58;;;;;;;112.87;39.87;;;8.90;99.90;;;;;;5088586;28;20256;-52
2021/12/13 07:08:28;;;;;;;117.82;39.50;;;9.00;99.90;;;;;;5088493;28;20024;-52
2021/12/13 07:10:57;;;;;;;117.78;40.50;;;9.00;99.90;;;;;;5090410;28;20032;-51
2021/12/13 07:13:39;;;;;;;120.90;39.53;;;9.00;99.90;;;;;;5089969;28;20103;-52
2021/12/13 07:16:15;;;;;;;106.18;39.25;;;9.00;99.90;;;;;;5090174;28;20024;-52
2021/12/13 07:18:53;;;;;;;115.57;39.38;;;9.00;99.90;;;;;;5088187;28;20477;-52
2021/12/13 07:21:26;;;;;;;99.47;34.47;;;9.00;99.90;;;;;;5090544;28;20056;-53
2021/12/13 07:24:08;;;;;;;110.65;36.88;;;9.00;99.90;;;;;;5089825;28;20024;-52
2021/12/13 07:26:39;;;;;;;111.90;37.38;;;9.00;99.90;;;;;;5089286;28;20024;-52
2021/12/13 07:29:22;;;;;;;91.53;34.17;;;9.00;99.90;;;;;;5077940;28;20020;-52
2021/12/13 07:32:06;;;;;;;102.03;35.42;;;9.00;99.90;;;;;;5090035;28;20036;-52
2021/12/13 07:34:33;;;;;;;105.20;37.47;;;9.00;99.90;;;;;;5090145;28;20124;-52
2021/12/13 07:37:02;;;;;;;106.68;38.35;;;9.00;99.90;;;;;;5088713;28;20486;-52
2021/12/13 07:39:31;;;;;;;92.30;35.63;;;9.00;99.90;;;;;;5089186;28;20043;-51
2021/12/13 07:42:11;;;;;;;108.93;39.00;;;9.00;99.90;;;;;;5089768;28;20027;-52
2021/12/13 07:44:39;;;;;;;98.32;37.20;;;8.90;99.90;;;;;;5090124;28;20059;-54
2021/12/13 07:47:17;;;;;;;99.28;37.33;;;9.00;99.90;;;;;;5088961;28;20051;-52
2021/12/13 07:49:47;;;;;;;103.78;38.88;;;8.90;99.90;;;;;;5084292;28;20459;-43
2021/12/13 07:52:37;;;;;;;111.07;39.88;;;8.90;99.90;;;;;;5070533;28;20476;-45
2021/12/13 07:55:19;;;;;;;106.15;40.17;;;8.90;99.90;;;;;;5067976;28;20032;-44
2021/12/13 07:57:46;;;;;;;94.85;35.30;;;8.90;99.90;;;;;;5075599;28;20047;-52
2021/12/13 08:00:33;;;;;;;101.03;37.55;;;8.90;99.90;;;;;;5081164;28;20528;-53
2021/12/13 08:03:06;;;;;;;84.63;32.83;;;8.90;99.90;;;;;;5089588;28;20066;-53
2021/12/13 08:05:38;;;;;;;98.68;35.53;;;8.90;99.90;;;;;;5089706;28;20013;-53
2021/12/13 08:08:07;;;;;;;122.20;39.33;;;9.00;99.90;;;;;;5089157;28;20024;-53
2021/12/13 08:10:39;;;;;;;91.68;34.13;;;9.00;99.90;;;;;;5087813;28;20477;-52
2021/12/13 08:13:13;;;;;;;103.45;37.38;;;9.00;99.90;;;;;;5088889;28;20081;-52
2021/12/13 08:15:38;;;;;;;96.38;33.75;;;9.00;99.90;;;;;;5089067;28;20497;-53
2021/12/13 08:18:23;;;;;;;111.07;38.67;;;9.00;99.90;;;;;;5082894;28;20090;-52
2021/12/13 08:21:03;;;;;;;106.78;35.40;;;9.00;99.90;;;;;;5068748;28;20401;-52
2021/12/13 08:23:41;;;;;;;94.95;34.78;;;9.00;99.90;;;;;;5069098;28;20028;-52
2021/12/13 08:26:12;;;;;;;80.97;30.67;;;9.00;99.90;;;;;;5067836;28;20175;-53
2021/12/13 08:28:44;;;;;;;100.80;35.58;;;9.10;99.90;;;;;;5073881;28;20029;-52
2021/12/13 08:31:27;;;;;;;94.32;35.17;;;9.10;99.90;;;;;;5067218;28;20058;-53
2021/12/13 08:34:09;;;;;;;105.28;36.20;;;9.10;99.90;;;;;;5065167;28;20099;-53
2021/12/13 08:36:47;;;;;;;104.78;36.55;;;9.10;99.90;;;;;;5066181;28;20599;-52
2021/12/13 08:39:15;;;;;;;99.32;38.30;;;9.10;99.90;;;;;;5065600;28;20043;-52
2021/12/13 08:41:48;;;;;;;90.57;35.20;;;9.10;99.90;;;;;;5068455;28;20059;-53
2021/12/13 08:44:23;;;;;;;97.20;35.53;;;9.10;99.90;;;;;;5071675;28;20024;-52
2021/12/13 08:46:55;;;;;;;83.53;33.15;;;9.10;99.90;;;;;;5067413;28;20200;-53
2021/12/13 08:49:29;;;;;;;97.15;36.13;;;9.20;99.90;;;;;;5066336;28;20082;-53
2021/12/13 08:52:06;;;;;;;98.82;38.92;;;9.20;99.90;;;;;;5064681;28;20052;-53
2021/12/13 08:54:39;;;;;;;88.85;33.80;;;9.20;99.90;;;;;;5068132;28;20418;-55
2021/12/13 08:57:09;;;;;;;90.70;34.95;;;9.20;99.90;;;;;;5056872;28;20031;-53
2021/12/13 08:59:35;;;;;;;83.05;32.30;;;9.20;99.90;;;;;;5077235;28;20024;-53
2021/12/13 09:02:11;;;;;;;92.13;35.42;;;9.30;99.90;;;;;;5086113;28;20418;-52
2021/12/13 09:04:43;;;;;;;87.65;36.40;;;9.30;99.90;;;;;;5087688;28;20048;-53
2021/12/13 09:07:19;;;;;;;77.85;33.80;;;9.30;99.90;;;;;;5087776;28;20028;-52
2021/12/13 09:09:47;;;;;;;96.20;36.20;;;9.30;99.90;;;;;;5087511;28;20024;-53
2021/12/13 09:12:15;;;;;;;83.47;33.78;;;9.30;99.90;;;;;;5087610;28;20028;-53
2021/12/13 09:14:50;;;;;;;88.68;35.30;;;9.30;99.90;;;;;;5088348;28;20027;-52
2021/12/13 09:17:38;;;;;;;84.15;34.55;;;9.30;99.90;;;;;;5082843;28;20499;-52
2021/12/13 09:20:21;;;;;;;99.32;36.78;;;9.30;99.90;;;;;;5067932;28;20038;-53
2021/12/13 09:22:51;;;;;;;86.65;35.75;;;9.20;99.90;;;;;;5066954;28;20047;-52
2021/12/13 09:25:39;;;;;;;84.00;34.20;;;9.30;99.90;;;;;;5067928;28;20025;-53
2021/12/13 09:28:27;;;;;;;77.78;33.13;;;9.30;99.90;;;;;;5074791;28;20085;-52
2021/12/13 09:31:00;;;;;;;84.57;34.65;;;9.30;99.90;;;;;;5085838;28;20042;-52
2021/12/13 09:33:42;;;;;;;82.53;33.35;;;9.30;99.90;;;;;;5089378;28;20438;-52
2021/12/13 09:36:11;;;;;;;77.55;32.53;;;9.30;99.90;;;;;;5088023;28;20034;-53
2021/12/13 09:39:04;;;;;;;78.18;33.53;;;9.30;99.90;;;;;;5086675;28;20065;-53
2021/12/13 09:42:04;;;;;;;81.15;33.63;;;9.30;99.90;;;;;;5087679;28;20094;-53
2021/12/13 09:44:37;;;;;;;81.13;34.33;;;9.30;99.90;;;;;;5033174;28;20493;-53
2021/12/13 09:47:12;;;;;;;84.38;32.75;;;9.30;99.90;;;;;;5067196;28;20062;-52
2021/12/13 09:49:48;;;;;;;85.50;34.22;;;9.40;99.90;;;;;;5067127;28;20086;-53
2021/12/13 09:52:28;;;;;;;72.88;30.23;;;9.30;99.90;;;;;;5067879;28;20019;-52
2021/12/13 09:55:08;;;;;;;81.47;31.45;;;9.40;99.90;;;;;;5067225;28;20379;-53
2021/12/13 09:57:43;;;;;;;80.03;30.73;;;9.40;99.90;;;;;;5072541;28;20020;-53
2021/12/13 10:00:40;;;;;;;67.68;29.40;;;9.40;99.90;;;;;;5073457;28;20044;-53
2021/12/13 10:03:17;;;;;;;65.00;28.67;;;9.40;99.90;;;;;;5067503;28;20027;-52
2021/12/13 10:05:48;;;;;;;71.50;29.50;;;9.40;99.90;;;;;;5065686;28;20031;-53
2021/12/13 10:08:17;;;;;;;70.43;30.83;;;9.50;99.90;;;;;;5066841;28;20075;-52
2021/12/13 10:10:48;;;;;;;66.85;28.65;;;9.50;99.90;;;;;;5065991;28;20043;-52
2021/12/13 10:13:19;;;;;;;63.15;30.15;;;9.50;99.90;;;;;;5067049;28;20017;-53
2021/12/13 10:15:49;;;;;;;60.45;29.40;;;9.50;99.90;;;;;;5067235;28;20472;-53
2021/12/13 10:18:20;;;;;;;56.60;25.80;;;9.60;99.90;;;;;;5066650;28;20028;-52
2021/12/13 10:20:48;;;;;;;;;;;9.60;99.90;;;;;;5067353;28;20134;-53
2021/12/13 10:23:17;;;;;;;50.47;24.17;;;9.60;99.90;;;;;;5065409;28;19908;-53
2021/12/13 10:25:47;;;;;;;59.88;27.58;;;9.70;99.90;;;;;;5067143;28;20569;-53
2021/12/13 10:28:16;;;;;;;;;;;9.70;99.90;;;;;;5075871;28;20028;-52
2021/12/13 10:31:06;;;;;;;57.05;25.88;;;9.80;99.90;;;;;;5069983;28;19905;-53
2021/12/13 10:33:35;;;;;;;57.72;26.83;;;10.00;99.90;;;;;;5068282;28;20051;-53
2021/12/13 10:36:02;;;;;;;55.85;27.17;;;10.10;99.90;;;;;;5070204;28;20035;-53
2021/12/13 10:38:37;;;;;;;43.65;23.30;;;10.10;99.90;;;;;;5069319;28;20032;-54
2021/12/13 10:41:08;;;;;;;44.80;23.70;;;10.20;99.90;;;;;;5070882;28;20506;-52
2021/12/13 10:43:56;;;;;;;42.65;22.42;;;10.20;99.90;;;;;;5070676;28;20059;-52
2021/12/13 10:46:26;;;;;;;41.15;22.60;;;10.20;99.90;;;;;;5070204;28;20072;-53
2021/12/13 10:48:57;;;;;;;39.85;21.50;;;10.30;99.90;;;;;;5070320;28;20028;-52
2021/12/13 10:51:28;;;;;;;38.33;20.98;;;10.30;99.90;;;;;;5070547;28;20035;-52
2021/12/13 10:53:55;;;;;;;35.95;21.05;;;10.30;99.90;;;;;;5070455;28;20034;-52
2021/12/13 10:56:29;;;;;;;46.50;21.17;;;10.20;99.90;;;;;;5070587;28;20162;-52
2021/12/13 10:59:03;;;;;;;35.00;19.90;;;10.10;99.90;;;;;;5078341;28;20059;-53
2021/12/13 11:01:36;;;;;;;39.35;20.27;;;10.10;99.90;;;;;;5090825;28;20020;-52
2021/12/13 11:04:07;;;;;;;35.75;20.55;;;10.10;99.90;;;;;;5090602;28;20146;-53
2021/12/13 11:06:35;;;;;;;42.05;20.65;;;10.10;99.90;;;;;;5090323;28;20016;-52
2021/12/13 11:09:03;;;;;;;38.42;21.75;;;10.10;99.90;;;;;;5089850;28;20209;-53
2021/12/13 11:11:37;;;;;;;36.38;21.60;;;10.10;99.90;;;;;;5090546;28;20111;-52
2021/12/13 11:14:10;;;;;;;41.13;22.10;;;10.20;99.90;;;;;;5088174;28;20035;-52
2021/12/13 11:16:42;;;;;;;39.72;20.70;;;10.20;99.90;;;;;;5090406;28;20031;-52
2021/12/13 11:19:12;;;;;;;37.38;20.83;;;10.30;99.90;;;;;;5078947;28;20025;-52
2021/12/13 11:21:40;;;;;;;32.03;19.17;;;10.40;99.90;;;;;;5069648;28;20013;-52
2021/12/13 11:24:08;;;;;;;30.23;18.08;;;10.50;99.90;;;;;;5069453;28;20482;-53
2021/12/13 11:26:40;;;;;;;34.03;18.88;;;10.60;99.90;;;;;;5068404;28;20037;-52
2021/12/13 11:29:07;;;;;;;31.52;18.63;;;10.60;99.90;;;;;;5092514;28;20017;-52
2021/12/13 11:31:33;;;;;;;30.80;18.00;;;10.60;99.90;;;;;;5089917;28;20036;-52
2021/12/13 11:33:59;;;;;;;28.75;16.98;;;10.70;99.90;;;;;;5090178;28;20485;-52
2021/12/13 11:37:00;;;;;;;31.50;17.85;;;10.70;99.90;;;;;;5090246;28;20058;-52
2021/12/13 11:39:53;;;;;;;24.48;15.57;;;10.80;99.90;;;;;;5089381;28;20493;-52
2021/12/13 11:42:40;;;;;;;25.45;16.73;;;10.80;99.90;;;;;;5089429;28;20423;-52
2021/12/13 11:45:27;;;;;;;25.70;15.07;;;10.80;99.90;;;;;;5089101;28;20424;-52
2021/12/13 11:48:28;;;;;;;28.02;16.38;;;10.80;99.90;;;;;;5089417;28;20024;-52
2021/12/13 11:51:06;;;;;;;24.95;16.02;;;10.80;99.90;;;;;;5085398;28;20044;-52
2021/12/13 11:54:00;;;;;;;26.00;15.88;;;10.80;99.90;;;;;;5090061;28;20100;-52
2021/12/13 11:56:55;;;;;;;26.00;16.38;;;10.80;99.90;;;;;;5089890;28;20024;-53
2021/12/13 11:59:51;;;;;;;26.00;16.02;;;10.80;99.90;;;;;;5063273;28;20056;-53
2021/12/13 12:02:48;;;;;;;26.90;16.83;;;10.80;99.90;;;;;;5067866;28;20099;-53
2021/12/13 12:05:27;;;;;;;27.38;16.58;;;10.80;99.90;;;;;;5067808;28;20029;-53
2021/12/13 12:08:16;;;;;;;25.52;16.35;;;10.80;99.90;;;;;;5067338;28;20024;-56
2021/12/13 12:11:13;;;;;;;27.00;17.35;;;10.80;99.90;;;;;;5065845;28;20020;-55
2021/12/13 12:14:03;;;;;;;26.90;15.98;;;10.80;99.90;;;;;;5064876;28;20021;-54
2021/12/13 12:16:30;;;;;;;27.08;15.98;;;10.80;99.90;;;;;;5066987;28;20425;-55
2021/12/13 12:18:56;;;;;;;27.20;17.08;;;10.70;99.90;;;;;;5068043;28;20243;-52
2021/12/13 12:21:48;;;;;;;27.00;17.17;;;10.70;99.90;;;;;;5067254;28;20020;-53
2021/12/13 12:24:35;;;;;;;30.67;16.90;;;10.60;99.90;;;;;;5066675;28;20259;-52
2021/12/13 12:27:07;;;;;;;26.40;16.60;;;10.70;99.90;;;;;;5065265;28;20024;-52
2021/12/13 12:29:38;;;;;;;33.88;17.45;;;10.70;99.90;;;;;;5066486;28;20021;-51
2021/12/13 12:32:09;;;;;;;29.85;18.80;;;10.70;99.90;;;;;;5065413;28;20115;-52
2021/12/13 12:34:46;;;;;;;26.45;17.95;;;10.70;99.90;;;;;;5066311;28;20494;-51
2021/12/13 12:37:21;;;;;;;28.60;17.90;;;10.80;99.90;;;;;;5066483;28;20044;-51
2021/12/13 12:39:56;;;;;;;26.58;17.08;;;10.80;99.90;;;;;;5065834;28;20029;-49
2021/12/13 12:42:37;;;;;;;29.00;18.77;;;10.70;99.90;;;;;;5064581;28;20500;-50
2021/12/13 12:45:29;;;;;;;30.38;18.88;;;10.80;99.90;;;;;;5065026;28;20020;-50
2021/12/13 12:47:57;;;;;;;28.98;18.70;;;10.80;99.90;;;;;;5067387;28;20104;-50
2021/12/13 12:50:55;;;;;;;27.80;17.85;;;10.80;99.90;;;;;;5067994;28;20040;-52
2021/12/13 12:53:33;;;;;;;29.98;17.45;;;10.80;99.90;;;;;;5056157;28;20112;-51
2021/12/13 12:56:39;;;;;;;28.38;17.63;;;10.80;99.90;;;;;;5066760;28;20031;-52
2021/12/13 12:59:08;;;;;;;27.98;17.00;;;10.80;99.90;;;;;;5076841;28;20017;-52
2021/12/13 13:01:58;;;;;;;28.73;17.88;;;10.80;99.90;;;;;;5088217;28;20031;-52
2021/12/13 13:04:32;;;;;;;26.83;17.35;;;10.80;99.90;;;;;;5088059;28;20052;-51
2021/12/13 13:07:25;;;;;;;29.27;18.67;;;10.80;99.90;;;;;;5087865;28;20020;-52
2021/12/13 13:09:54;;;;;;;30.80;18.75;;;10.70;99.90;;;;;;5087975;28;20028;-52
2021/12/13 13:12:29;;;;;;;26.48;17.40;;;10.70;99.90;;;;;;5087383;28;20612;-52
2021/12/13 13:14:56;;;;;;;36.80;19.00;;;10.60;99.90;;;;;;5088261;28;20278;-52
2021/12/13 13:17:29;;;;;;;29.75;17.90;;;10.60;99.90;;;;;;5087434;28;20028;-52
2021/12/13 13:19:59;;;;;;;27.85;18.75;;;10.60;99.90;;;;;;5087671;28;20456;-52